MSC Suez — HPMS — position and weather

sailwx.info

Track history (hours):
 
Tides and Currents Weather Stations Pressure Air Temp Water Temp Dewpoint Dewpoint Depression Visibility Wind Speed Wind Dir Waves Ship Positions

MSC Suez

Last reported at 2014-Jul-23 02:33 UTC. Time now 2014-Jul-23 03:18 UTC.
Position N 51°25' E 003°16'.

Length 237 m; draft 8.8 m.

Type: Ship (hazmat cat D). MMSI: 355289000.

Date/timePositionNaut miles runAvg speedWind from/ knotsBaromVisibWave heightAir tempDewpointWater temp
2014-Jul-23 02:33N 51°25' E 003°16'9 9.5
2014-Jul-23 01:33N 51°31' E 003°04'1514.5
2014-Jul-23 00:33N 51°44' E 003°15'1312.9
2014-Jul-22 23:34N 51°57' E 003°18'1717.2
2014-Jul-22 22:33N 52°14' E 003°24'1615.6
2014-Jul-22 21:33N 52°29' E 003°27'1616.0
2014-Jul-22 20:34N 52°43' E 003°39'1817.4
2014-Jul-22 19:32N 52°57' E 003°58'1717.1
2014-Jul-22 18:34N 53°08' E 004°19'1716.9
2014-Jul-22 17:34N 53°23' E 004°31'1616.5
2014-Jul-22 16:34N 53°39' E 004°40'1616.2
2014-Jul-22 15:34N 53°54' E 004°49'1616.2
2014-Jul-22 14:34N 54°09' E 004°60'1616.4
2014-Jul-22 13:34N 54°24' E 005°12'1616.5
2014-Jul-22 12:34N 54°38' E 005°25'1716.7
2014-Jul-22 11:34N 54°52' E 005°40'1716.7
2014-Jul-22 10:33N 55°07' E 005°55'19715.8
2014-Jul-21 22:05N 57°41' E 009°36'916.2
2014-Jul-21 21:31N 57°44' E 009°53'1616.1
2014-Jul-21 20:33N 57°47' E 010°21'416.0
2014-Jul-21 20:18N 57°48' E 010°29'1115.4
2014-Jul-21 19:34N 57°47' E 010°50'1615.9
2014-Jul-21 18:34N 57°35' E 011°11'1515.3
2014-Jul-21 17:34N 57°23' E 011°28'1615.9
2014-Jul-21 16:33N 57°08' E 011°39'1615.5
2014-Jul-21 15:33N 56°54' E 011°48'1514.3
2014-Jul-21 14:33N 56°39' E 011°48'1515.5
2014-Jul-21 13:34N 56°26' E 011°34'1615.9
2014-Jul-21 12:33N 56°12' E 011°19'1716.7
2014-Jul-21 11:33N 55°59' E 011°02'4515.1
2014-Jul-21 08:34N 55°13' E 011°06'1717.0
2014-Jul-21 07:34N 54°57' E 010°58'1615.8
2014-Jul-21 06:34N 54°41' E 010°55'1817.8
2014-Jul-21 05:34N 54°33' E 011°22'1717.3
2014-Jul-21 04:34N 54°27' E 011°49'1414.2
2014-Jul-21 03:33N 54°32' E 012°12'1616.1
2014-Jul-21 02:34N 54°43' E 012°32'1616.5
2014-Jul-21 01:34N 54°50' E 012°58'1616.1
2014-Jul-21 00:34N 54°56' E 013°24'1616.3
2014-Jul-20 23:34N 55°01' E 013°51'1615.5
2014-Jul-20 22:34N 55°11' E 014°13'1616.4
2014-Jul-20 21:34N 55°24' E 014°31'1615.9
2014-Jul-20 20:34N 55°33' E 014°54'1616.4
2014-Jul-20 19:34N 55°41' E 015°19'1716.7
2014-Jul-20 18:34N 55°49' E 015°45'1716.7
2014-Jul-20 17:34N 55°57' E 016°11'1716.5
2014-Jul-20 16:34N 56°06' E 016°36'1716.5
2014-Jul-20 15:33N 56°16' E 017°00'1616.4
2014-Jul-20 14:34N 56°25' E 017°23'1616.4
2014-Jul-20 13:34N 56°35' E 017°47'1616.4
2014-Jul-20 12:33N 56°45' E 018°11'1616.2
2014-Jul-20 11:34N 56°56' E 018°32'1616.2
2014-Jul-20 10:34N 57°09' E 018°50'3316.3
2014-Jul-20 08:34N 57°36' E 019°25'1616.4
2014-Jul-20 07:34N 57°49' E 019°43'1919.2
2014-Jul-20 06:33N 58°05' E 020°05'2119.5
2014-Jul-20 05:29N 58°21' E 020°29'1818.4
2014-Jul-20 04:31N 58°36' E 020°49'6616.5
2014-Jul-20 00:31N 59°25' E 022°15'1616.1
2014-Jul-19 23:32N 59°32' E 022°42'1616.7
2014-Jul-19 22:34N 59°37' E 023°13'1716.7
2014-Jul-19 21:33N 59°42' E 023°45'1716.7
2014-Jul-19 20:34N 59°46' E 024°17'1716.8
2014-Jul-19 19:34N 59°50' E 024°49'1716.9
2014-Jul-19 18:34N 59°53' E 025°23'1716.7
2014-Jul-19 17:34N 59°56' E 025°55'1716.5
2014-Jul-19 16:34N 60°00' E 026°27'1616.1
2014-Jul-19 15:33N 59°59' E 026°59'1716.3
2014-Jul-19 14:33N 60°07' E 027°29'1615.5
2014-Jul-19 13:30N 60°10' E 028°01'68 5.7
2014-Jul-19 01:29N 59°52' E 030°12'0 0.0
2014-Jul-19 00:32N 59°52' E 030°12'0 0.0
2014-Jul-18 23:32N 59°52' E 030°12'0 0.0
2014-Jul-18 22:29N 59°52' E 030°12'0 0.0
2014-Jul-18 21:29N 59°52' E 030°12'0 0.0
2014-Jul-18 20:29N 59°52' E 030°12'0 0.0
2014-Jul-18 19:32N 59°52' E 030°12'0 0.0
2014-Jul-18 18:32N 59°52' E 030°12'0 0.0
2014-Jul-18 17:23N 59°52' E 030°12'0 0.0
2014-Jul-18 16:29N 59°52' E 030°12'0 0.0
2014-Jul-18 15:32N 59°52' E 030°12'0 0.0
2014-Jul-18 14:32N 59°52' E 030°12'0 0.0
2014-Jul-18 12:29N 59°52' E 030°12'0 0.0
2014-Jul-18 11:32N 59°52' E 030°12'0 0.0
2014-Jul-18 10:32N 59°52' E 030°12'0 0.0
2014-Jul-18 08:26N 59°52' E 030°12'0 0.0
2014-Jul-18 07:29N 59°52' E 030°12'0 0.0
2014-Jul-18 06:17N 59°52' E 030°12'0 0.0
2014-Jul-18 05:23N 59°52' E 030°12'0 0.0
2014-Jul-18 04:29N 59°52' E 030°12'0 0.0
2014-Jul-18 03:26N 59°52' E 030°12'0 0.0
2014-Jul-18 02:32N 59°52' E 030°12'0 0.0
2014-Jul-18 01:32N 59°52' E 030°12'0 0.0
2014-Jul-18 00:32N 59°52' E 030°12'0 0.0
2014-Jul-17 23:29N 59°52' E 030°12'0 0.0
2014-Jul-17 22:23N 59°52' E 030°12'0 0.0
2014-Jul-17 21:29N 59°52' E 030°12'0 0.0
2014-Jul-17 20:32N 59°52' E 030°12'0 0.0
2014-Jul-17 19:32N 59°52' E 030°12'0 0.0
2014-Jul-17 18:29N 59°52' E 030°12'0 0.0
2014-Jul-17 17:29N 59°52' E 030°12'0 0.0
2014-Jul-17 16:32N 59°52' E 030°12'0 0.0
2014-Jul-17 15:29N 59°52' E 030°12'0 0.0
2014-Jul-17 14:26N 59°52' E 030°12'1 0.9
2014-Jul-17 13:33N 59°53' E 030°11'10813.5
2014-Jul-17 05:33N 59°59' E 026°35'9117.6
2014-Jul-17 00:24N 59°36' E 023°41'1517.6
2014-Jul-16 23:33N 59°32' E 023°12'2017.5
2014-Jul-16 22:24N 59°25' E 022°35'1717.7
2014-Jul-16 21:28N 59°15' E 022°09'29218.1
2014-Jul-16 05:19N 55°46' E 015°50'1418.0
2014-Jul-16 04:33N 55°38' E 015°29'1818.1
2014-Jul-16 03:33N 55°30' E 015°00'1818.1
2014-Jul-16 02:33N 55°20' E 014°34'1818.0
2014-Jul-16 01:34N 55°06' E 014°15'1817.5
2014-Jul-16 00:33N 54°57' E 013°48'1818.2
2014-Jul-15 23:34N 54°52' E 013°18'1818.1
2014-Jul-15 22:33N 54°46' E 012°48'1817.9
2014-Jul-15 21:34N 54°36' E 012°22'1616.5
2014-Jul-15 20:33N 54°25' E 012°02'1817.7
2014-Jul-15 19:33N 54°29' E 011°32'1918.6
2014-Jul-15 18:34N 54°37' E 011°04'11815.7
2014-Jul-15 11:05N 56°33' E 011°40'1018.4
2014-Jul-15 10:33N 56°42' E 011°48'1817.5
2014-Jul-15 09:33N 56°59' E 011°43'1818.2
2014-Jul-15 08:33N 57°16' E 011°31'1818.2
2014-Jul-15 07:33N 57°32' E 011°15'1919.2
2014-Jul-15 06:33N 57°45' E 010°49'1918.6
2014-Jul-15 05:33N 57°46' E 010°14'14217.7
2014-Jul-14 21:33N 55°57' E 007°27'1918.5
2014-Jul-14 20:33N 55°39' E 007°20'1918.9
2014-Jul-14 19:33N 55°20' E 007°21'3332.6
2014-Jul-14 18:32N 54°47' E 007°21'4 4.1
2014-Jul-14 17:33N 54°43' E 007°22'1918.8
2014-Jul-14 16:33N 54°24' E 007°22'1919.0
2014-Jul-14 15:33N 54°06' E 007°33'1817.2
2014-Jul-14 14:32N 53°52' E 007°51'1515.9
2014-Jul-14 13:33N 53°44' E 008°14'1414.3
2014-Jul-14 12:33N 53°35' E 008°32'1 0.6
2014-Jul-14 11:33N 53°34' E 008°32'0 0.0
2014-Jul-14 10:33N 53°34' E 008°32'0 0.0
2014-Jul-14 09:33N 53°34' E 008°32'0 0.0
2014-Jul-14 08:33N 53°34' E 008°32'0 0.0
2014-Jul-14 07:33N 53°34' E 008°32'0 0.0
2014-Jul-14 06:33N 53°34' E 008°32'0 0.0
2014-Jul-14 05:33N 53°34' E 008°32'0 0.0
2014-Jul-14 04:33N 53°34' E 008°32'0 0.0
2014-Jul-14 03:33N 53°34' E 008°32'0 0.0
2014-Jul-14 02:33N 53°34' E 008°32'0 0.0
2014-Jul-14 01:33N 53°34' E 008°32'0 0.0
2014-Jul-14 00:33N 53°34' E 008°32'0 0.0
2014-Jul-13 23:33N 53°34' E 008°32'0 0.0
2014-Jul-13 22:33N 53°34' E 008°32'0 0.0
2014-Jul-13 21:33N 53°34' E 008°32'0 0.0
2014-Jul-13 20:33N 53°34' E 008°32'0 0.0
2014-Jul-13 19:33N 53°34' E 008°32'0 0.0
2014-Jul-13 18:33N 53°34' E 008°32'0 0.0
2014-Jul-13 17:33N 53°34' E 008°32'0 0.0
2014-Jul-13 16:33N 53°34' E 008°32'0 0.0
2014-Jul-13 15:33N 53°34' E 008°32'0 0.0
2014-Jul-13 14:33N 53°34' E 008°32'9 9.0
2014-Jul-13 13:33N 53°41' E 008°22'1615.9
2014-Jul-13 12:33N 53°51' E 008°01'1111.1
2014-Jul-13 11:33N 53°53' E 007°42'5 4.4
2014-Jul-13 10:28N 53°54' E 007°34'1010.7
2014-Jul-13 09:31N 53°52' E 007°18'1414.0
2014-Jul-13 08:32N 53°49' E 006°54'1414.2
2014-Jul-13 07:32N 53°46' E 006°31'1414.1
2014-Jul-13 06:33N 53°42' E 006°09'1413.8
2014-Jul-13 05:33N 53°38' E 005°47'1413.8
2014-Jul-13 04:33N 53°34' E 005°25'1413.5
2014-Jul-13 03:33N 53°29' E 005°03'  
Track history (hours):
 
Tides and Currents Weather Stations Pressure Air Temp Water Temp Dewpoint Dewpoint Depression Visibility Wind Speed Wind Dir Waves Ship Positions

MSC Suez

Last reported at 2014-Jul-23 02:33 UTC. Time now 2014-Jul-23 03:18 UTC.
Position N 51°25' E 003°16'.

Length 237 m; draft 8.8 m.

Type: Ship (hazmat cat D). MMSI: 355289000.

Date/timePositionNaut miles runAvg speedWind from/ knotsBaromVisibWave heightAir tempDewpointWater temp
2014-Jul-23 02:33N 51°25' E 003°16'9 9.5
2014-Jul-23 01:33N 51°31' E 003°04'1514.5
2014-Jul-23 00:33N 51°44' E 003°15'1312.9
2014-Jul-22 23:34N 51°57' E 003°18'1717.2
2014-Jul-22 22:33N 52°14' E 003°24'1615.6
2014-Jul-22 21:33N 52°29' E 003°27'1616.0
2014-Jul-22 20:34N 52°43' E 003°39'1817.4
2014-Jul-22 19:32N 52°57' E 003°58'1717.1
2014-Jul-22 18:34N 53°08' E 004°19'1716.9
2014-Jul-22 17:34N 53°23' E 004°31'1616.5
2014-Jul-22 16:34N 53°39' E 004°40'1616.2
2014-Jul-22 15:34N 53°54' E 004°49'1616.2
2014-Jul-22 14:34N 54°09' E 004°60'1616.4
2014-Jul-22 13:34N 54°24' E 005°12'1616.5
2014-Jul-22 12:34N 54°38' E 005°25'1716.7
2014-Jul-22 11:34N 54°52' E 005°40'1716.7
2014-Jul-22 10:33N 55°07' E 005°55'19715.8
2014-Jul-21 22:05N 57°41' E 009°36'916.2
2014-Jul-21 21:31N 57°44' E 009°53'1616.1
2014-Jul-21 20:33N 57°47' E 010°21'416.0
2014-Jul-21 20:18N 57°48' E 010°29'1115.4
2014-Jul-21 19:34N 57°47' E 010°50'1615.9
2014-Jul-21 18:34N 57°35' E 011°11'1515.3
2014-Jul-21 17:34N 57°23' E 011°28'1615.9
2014-Jul-21 16:33N 57°08' E 011°39'1615.5
2014-Jul-21 15:33N 56°54' E 011°48'1514.3
2014-Jul-21 14:33N 56°39' E 011°48'1515.5
2014-Jul-21 13:34N 56°26' E 011°34'1615.9
2014-Jul-21 12:33N 56°12' E 011°19'1716.7
2014-Jul-21 11:33N 55°59' E 011°02'4515.1
2014-Jul-21 08:34N 55°13' E 011°06'1717.0
2014-Jul-21 07:34N 54°57' E 010°58'1615.8
2014-Jul-21 06:34N 54°41' E 010°55'1817.8
2014-Jul-21 05:34N 54°33' E 011°22'1717.3
2014-Jul-21 04:34N 54°27' E 011°49'1414.2
2014-Jul-21 03:33N 54°32' E 012°12'1616.1
2014-Jul-21 02:34N 54°43' E 012°32'1616.5
2014-Jul-21 01:34N 54°50' E 012°58'1616.1
2014-Jul-21 00:34N 54°56' E 013°24'1616.3
2014-Jul-20 23:34N 55°01' E 013°51'1615.5
2014-Jul-20 22:34N 55°11' E 014°13'1616.4
2014-Jul-20 21:34N 55°24' E 014°31'1615.9
2014-Jul-20 20:34N 55°33' E 014°54'1616.4
2014-Jul-20 19:34N 55°41' E 015°19'1716.7
2014-Jul-20 18:34N 55°49' E 015°45'1716.7
2014-Jul-20 17:34N 55°57' E 016°11'1716.5
2014-Jul-20 16:34N 56°06' E 016°36'1716.5
2014-Jul-20 15:33N 56°16' E 017°00'1616.4
2014-Jul-20 14:34N 56°25' E 017°23'1616.4
2014-Jul-20 13:34N 56°35' E 017°47'1616.4
2014-Jul-20 12:33N 56°45' E 018°11'1616.2
2014-Jul-20 11:34N 56°56' E 018°32'1616.2
2014-Jul-20 10:34N 57°09' E 018°50'3316.3
2014-Jul-20 08:34N 57°36' E 019°25'1616.4
2014-Jul-20 07:34N 57°49' E 019°43'1919.2
2014-Jul-20 06:33N 58°05' E 020°05'2119.5
2014-Jul-20 05:29N 58°21' E 020°29'1818.4
2014-Jul-20 04:31N 58°36' E 020°49'6616.5
2014-Jul-20 00:31N 59°25' E 022°15'1616.1
2014-Jul-19 23:32N 59°32' E 022°42'1616.7
2014-Jul-19 22:34N 59°37' E 023°13'1716.7
2014-Jul-19 21:33N 59°42' E 023°45'1716.7
2014-Jul-19 20:34N 59°46' E 024°17'1716.8
2014-Jul-19 19:34N 59°50' E 024°49'1716.9
2014-Jul-19 18:34N 59°53' E 025°23'1716.7
2014-Jul-19 17:34N 59°56' E 025°55'1716.5
2014-Jul-19 16:34N 60°00' E 026°27'1616.1
2014-Jul-19 15:33N 59°59' E 026°59'1716.3
2014-Jul-19 14:33N 60°07' E 027°29'1615.5
2014-Jul-19 13:30N 60°10' E 028°01'68 5.7
2014-Jul-19 01:29N 59°52' E 030°12'0 0.0
2014-Jul-19 00:32N 59°52' E 030°12'0 0.0
2014-Jul-18 23:32N 59°52' E 030°12'0 0.0
2014-Jul-18 22:29N 59°52' E 030°12'0 0.0
2014-Jul-18 21:29N 59°52' E 030°12'0 0.0
2014-Jul-18 20:29N 59°52' E 030°12'0 0.0
2014-Jul-18 19:32N 59°52' E 030°12'0 0.0
2014-Jul-18 18:32N 59°52' E 030°12'0 0.0
2014-Jul-18 17:23N 59°52' E 030°12'0 0.0
2014-Jul-18 16:29N 59°52' E 030°12'0 0.0
2014-Jul-18 15:32N 59°52' E 030°12'0 0.0
2014-Jul-18 14:32N 59°52' E 030°12'0 0.0
2014-Jul-18 12:29N 59°52' E 030°12'0 0.0
2014-Jul-18 11:32N 59°52' E 030°12'0 0.0
2014-Jul-18 10:32N 59°52' E 030°12'0 0.0
2014-Jul-18 08:26N 59°52' E 030°12'0 0.0
2014-Jul-18 07:29N 59°52' E 030°12'0 0.0
2014-Jul-18 06:17N 59°52' E 030°12'0 0.0
2014-Jul-18 05:23N 59°52' E 030°12'0 0.0
2014-Jul-18 04:29N 59°52' E 030°12'0 0.0
2014-Jul-18 03:26N 59°52' E 030°12'0 0.0
2014-Jul-18 02:32N 59°52' E 030°12'0 0.0
2014-Jul-18 01:32N 59°52' E 030°12'0 0.0
2014-Jul-18 00:32N 59°52' E 030°12'0 0.0
2014-Jul-17 23:29N 59°52' E 030°12'0 0.0
2014-Jul-17 22:23N 59°52' E 030°12'0 0.0
2014-Jul-17 21:29N 59°52' E 030°12'0 0.0
2014-Jul-17 20:32N 59°52' E 030°12'0 0.0
2014-Jul-17 19:32N 59°52' E 030°12'0 0.0
2014-Jul-17 18:29N 59°52' E 030°12'0 0.0
2014-Jul-17 17:29N 59°52' E 030°12'0 0.0
2014-Jul-17 16:32N 59°52' E 030°12'0 0.0
2014-Jul-17 15:29N 59°52' E 030°12'0 0.0
2014-Jul-17 14:26N 59°52' E 030°12'1 0.9
2014-Jul-17 13:33N 59°53' E 030°11'10813.5
2014-Jul-17 05:33N 59°59' E 026°35'9117.6
2014-Jul-17 00:24N 59°36' E 023°41'1517.6
2014-Jul-16 23:33N 59°32' E 023°12'2017.5
2014-Jul-16 22:24N 59°25' E 022°35'1717.7
2014-Jul-16 21:28N 59°15' E 022°09'29218.1
2014-Jul-16 05:19N 55°46' E 015°50'1418.0
2014-Jul-16 04:33N 55°38' E 015°29'1818.1
2014-Jul-16 03:33N 55°30' E 015°00'1818.1
2014-Jul-16 02:33N 55°20' E 014°34'1818.0
2014-Jul-16 01:34N 55°06' E 014°15'1817.5
2014-Jul-16 00:33N 54°57' E 013°48'1818.2
2014-Jul-15 23:34N 54°52' E 013°18'1818.1
2014-Jul-15 22:33N 54°46' E 012°48'1817.9
2014-Jul-15 21:34N 54°36' E 012°22'1616.5
2014-Jul-15 20:33N 54°25' E 012°02'1817.7
2014-Jul-15 19:33N 54°29' E 011°32'1918.6
2014-Jul-15 18:34N 54°37' E 011°04'11815.7
2014-Jul-15 11:05N 56°33' E 011°40'1018.4
2014-Jul-15 10:33N 56°42' E 011°48'1817.5
2014-Jul-15 09:33N 56°59' E 011°43'1818.2
2014-Jul-15 08:33N 57°16' E 011°31'1818.2
2014-Jul-15 07:33N 57°32' E 011°15'1919.2
2014-Jul-15 06:33N 57°45' E 010°49'1918.6
2014-Jul-15 05:33N 57°46' E 010°14'14217.7
2014-Jul-14 21:33N 55°57' E 007°27'1918.5
2014-Jul-14 20:33N 55°39' E 007°20'1918.9
2014-Jul-14 19:33N 55°20' E 007°21'3332.6
2014-Jul-14 18:32N 54°47' E 007°21'4 4.1
2014-Jul-14 17:33N 54°43' E 007°22'1918.8
2014-Jul-14 16:33N 54°24' E 007°22'1919.0
2014-Jul-14 15:33N 54°06' E 007°33'1817.2
2014-Jul-14 14:32N 53°52' E 007°51'1515.9
2014-Jul-14 13:33N 53°44' E 008°14'1414.3
2014-Jul-14 12:33N 53°35' E 008°32'1 0.6
2014-Jul-14 11:33N 53°34' E 008°32'0 0.0
2014-Jul-14 10:33N 53°34' E 008°32'0 0.0
2014-Jul-14 09:33N 53°34' E 008°32'0 0.0
2014-Jul-14 08:33N 53°34' E 008°32'0 0.0
2014-Jul-14 07:33N 53°34' E 008°32'0 0.0
2014-Jul-14 06:33N 53°34' E 008°32'0 0.0
2014-Jul-14 05:33N 53°34' E 008°32'0 0.0
2014-Jul-14 04:33N 53°34' E 008°32'0 0.0
2014-Jul-14 03:33N 53°34' E 008°32'0 0.0
2014-Jul-14 02:33N 53°34' E 008°32'0 0.0
2014-Jul-14 01:33N 53°34' E 008°32'0 0.0
2014-Jul-14 00:33N 53°34' E 008°32'0 0.0
2014-Jul-13 23:33N 53°34' E 008°32'0 0.0
2014-Jul-13 22:33N 53°34' E 008°32'0 0.0
2014-Jul-13 21:33N 53°34' E 008°32'0 0.0
2014-Jul-13 20:33N 53°34' E 008°32'0 0.0
2014-Jul-13 19:33N 53°34' E 008°32'0 0.0
2014-Jul-13 18:33N 53°34' E 008°32'0 0.0
2014-Jul-13 17:33N 53°34' E 008°32'0 0.0
2014-Jul-13 16:33N 53°34' E 008°32'0 0.0
2014-Jul-13 15:33N 53°34' E 008°32'0 0.0
2014-Jul-13 14:33N 53°34' E 008°32'9 9.0
2014-Jul-13 13:33N 53°41' E 008°22'1615.9
2014-Jul-13 12:33N 53°51' E 008°01'1111.1
2014-Jul-13 11:33N 53°53' E 007°42'5 4.4
2014-Jul-13 10:28N 53°54' E 007°34'1010.7
2014-Jul-13 09:31N 53°52' E 007°18'1414.0
2014-Jul-13 08:32N 53°49' E 006°54'1414.2
2014-Jul-13 07:32N 53°46' E 006°31'1414.1
2014-Jul-13 06:33N 53°42' E 006°09'1413.8
2014-Jul-13 05:33N 53°38' E 005°47'1413.8
2014-Jul-13 04:33N 53°34' E 005°25'1413.5
2014-Jul-13 03:33N 53°29' E 005°03'  

Dump ship's entire track history